Time;durP1;ratioP1;P1;durP2;ratioP2;P2;SDS_P1;SDS_P2;PMS_P1;PMS_P2;Temp;Humidity;BMP_temperature;BMP_pressure;BME280_temperature;BME280_humidity;BME280_pressure;Samples;Min_cycle;Max_cycle;Signal;HPM_P1;HPM_P2
2022/08/13 00:00:59;;;;;;;7.00;2.95;;;;;;;;;;5108279;28;20055;-50
2022/08/13 00:03:26;;;;;;;3.13;2.83;;;;;;;;;;5105096;28;20052;-49
2022/08/13 00:05:51;;;;;;;11.18;3.53;;;;;;;;;;5105588;28;20071;-49
2022/08/13 00:08:17;;;;;;;3.55;2.65;;;;;;;;;;5108622;28;20090;-51
2022/08/13 00:10:42;;;;;;;11.48;3.80;;;;;;;;;;5108755;28;20410;-52
2022/08/13 00:13:08;;;;;;;5.97;3.97;;;;;;;;;;5108460;28;20080;-52
2022/08/13 00:15:35;;;;;;;9.90;3.45;;;;;;;;;;5107563;28;20043;-48
2022/08/13 00:18:11;;;;;;;3.58;2.38;;;;;;;;;;5107866;28;20131;-51
2022/08/13 00:20:44;;;;;;;10.98;3.88;;;;;;;;;;5107688;28;20524;-50
2022/08/13 00:23:15;;;;;;;3.65;3.33;;;;;;;;;;5108666;28;20051;-48
2022/08/13 00:25:41;;;;;;;3.35;3.03;;;;;;;;;;5107655;28;20031;-50
2022/08/13 00:28:06;;;;;;;3.53;2.53;;;;;;;;;;5106998;28;20059;-53
2022/08/13 00:30:33;;;;;;;3.60;2.90;;;;;;;;;;5108543;28;20040;-50
2022/08/13 00:33:03;;;;;;;3.63;2.90;;;;;;;;;;5107260;28;20067;-48
2022/08/13 00:35:28;;;;;;;8.23;3.05;;;;;;;;;;5107406;28;20089;-49
2022/08/13 00:37:57;;;;;;;3.58;3.05;;;;;;;;;;5104729;28;20051;-48
2022/08/13 00:40:23;;;;;;;3.08;2.70;;;;;;;;;;5107768;28;20044;-50
2022/08/13 00:42:48;;;;;;;10.82;3.92;;;;;;;;;;5106408;28;20044;-52
2022/08/13 00:45:14;;;;;;;9.48;3.08;;;;;;;;;;5106636;28;20051;-52
2022/08/13 00:50:23;;;;;;;4.88;3.00;;;;;;;;;;5090698;28;20458;-48
2022/08/13 00:52:49;;;;;;;2.58;1.98;;;;;;;;;;5105008;28;20039;-52
2022/08/13 00:55:17;;;;;;;5.80;3.60;;;;;;;;;;5104013;28;20069;-50
2022/08/13 00:57:45;;;;;;;10.82;4.57;;;;;;;;;;5106979;28;20147;-49
2022/08/13 01:00:15;;;;;;;6.22;3.13;;;;;;;;;;5106608;28;20458;-50
2022/08/13 01:02:41;;;;;;;3.43;2.37;;;;;;;;;;5106634;28;20135;-51
2022/08/13 01:05:07;;;;;;;5.70;3.35;;;;;;;;;;5106490;28;20509;-48
2022/08/13 01:07:33;;;;;;;4.22;2.15;;;;;;;;;;5107577;28;20105;-47
2022/08/13 01:09:58;;;;;;;2.55;2.20;;;;;;;;;;5105776;28;20047;-49
2022/08/13 01:12:24;;;;;;;2.03;1.65;;;;;;;;;;5104568;28;20098;-46
2022/08/13 01:14:50;;;;;;;3.85;2.38;;;;;;;;;;5104258;28;20032;-51
2022/08/13 01:17:17;;;;;;;4.22;2.72;;;;;;;;;;5105415;28;20108;-50
2022/08/13 01:19:44;;;;;;;5.68;3.88;;;;;;;;;;5106521;28;20062;-46
2022/08/13 01:22:10;;;;;;;3.92;3.30;;;;;;;;;;5106499;28;20054;-52
2022/08/13 01:24:35;;;;;;;3.38;3.05;;;;;;;;;;5107716;28;20040;-51
2022/08/13 01:27:01;;;;;;;6.32;3.33;;;;;;;;;;5105479;28;20044;-49
2022/08/13 01:29:26;;;;;;;6.43;4.13;;;;;;;;;;5106741;28;20047;-49
2022/08/13 01:31:52;;;;;;;4.63;3.55;;;;;;;;;;5106915;28;20064;-50
2022/08/13 01:34:17;;;;;;;11.77;4.05;;;;;;;;;;5107042;28;20043;-53
2022/08/13 01:36:43;;;;;;;11.48;4.72;;;;;;;;;;5107046;28;20031;-51
2022/08/13 01:39:10;;;;;;;5.28;4.07;;;;;;;;;;5107180;28;20093;-50
2022/08/13 01:41:36;;;;;;;4.07;3.58;;;;;;;;;;5106911;28;20051;-52
2022/08/13 01:44:05;;;;;;;4.20;2.38;;;;;;;;;;5107286;28;20035;-49
2022/08/13 01:50:29;;;;;;;2.58;2.35;;;;;;;;;;5107734;28;20043;-53
2022/08/13 01:52:05;;;;;;;3.65;2.22;;;;;;;;;;5106239;28;20065;-49
2022/08/13 01:54:31;;;;;;;2.88;2.58;;;;;;;;;;5106398;28;20553;-47
2022/08/13 01:56:59;;;;;;;10.02;4.05;;;;;;;;;;5105923;28;20505;-52
2022/08/13 01:59:24;;;;;;;14.55;3.08;;;;;;;;;;5104990;28;20051;-48
2022/08/13 02:01:50;;;;;;;18.45;3.95;;;;;;;;;;5106338;28;20051;-51
2022/08/13 02:04:15;;;;;;;7.43;3.72;;;;;;;;;;5106769;28;20048;-48
2022/08/13 02:06:40;;;;;;;6.22;3.85;;;;;;;;;;5083394;28;20055;-50
2022/08/13 02:09:06;;;;;;;10.15;3.80;;;;;;;;;;5105333;28;20050;-53
2022/08/13 02:11:35;;;;;;;12.23;4.28;;;;;;;;;;5105828;28;20044;-53
2022/08/13 02:14:03;;;;;;;9.68;3.75;;;;;;;;;;5107013;28;20032;-49
2022/08/13 02:16:32;;;;;;;5.00;2.75;;;;;;;;;;5106117;28;20050;-51
2022/08/13 02:18:57;;;;;;;3.08;2.75;;;;;;;;;;5105480;28;20047;-51
2022/08/13 02:21:25;;;;;;;8.68;4.03;;;;;;;;;;5106245;28;20109;-54
2022/08/13 02:23:56;;;;;;;7.80;4.40;;;;;;;;;;5105399;28;20116;-51
2022/08/13 02:26:23;;;;;;;3.58;2.72;;;;;;;;;;5105723;28;20055;-46
2022/08/13 02:28:49;;;;;;;2.38;2.03;;;;;;;;;;5103461;28;20534;-52
2022/08/13 02:31:14;;;;;;;6.65;3.42;;;;;;;;;;5102800;28;20055;-47
2022/08/13 02:33:40;;;;;;;6.60;3.47;;;;;;;;;;5104540;28;20031;-47
2022/08/13 02:36:10;;;;;;;7.93;2.97;;;;;;;;;;5105623;28;20047;-49
2022/08/13 02:38:36;;;;;;;4.15;3.28;;;;;;;;;;5105291;28;20056;-52
2022/08/13 02:43:50;;;;;;;4.35;2.97;;;;;;;;;;5104475;28;20608;-48
2022/08/13 02:46:15;;;;;;;15.70;2.92;;;;;;;;;;5104631;28;20058;-49
2022/08/13 02:48:41;;;;;;;5.75;4.40;;;;;;;;;;5104493;28;20211;-50
2022/08/13 02:51:06;;;;;;;13.75;3.60;;;;;;;;;;5105786;28;20057;-48
2022/08/13 02:53:31;;;;;;;3.17;2.58;;;;;;;;;;5103903;28;20040;-51
2022/08/13 02:55:59;;;;;;;5.10;2.45;;;;;;;;;;5105936;28;20100;-49
2022/08/13 02:58:25;;;;;;;5.90;2.88;;;;;;;;;;5105476;28;20118;-51
2022/08/13 03:00:52;;;;;;;6.45;3.20;;;;;;;;;;5105945;28;20074;-53
2022/08/13 03:03:18;;;;;;;2.33;1.63;;;;;;;;;;5103218;28;20116;-51
2022/08/13 03:05:43;;;;;;;18.13;3.75;;;;;;;;;;5103954;28;20054;-50
2022/08/13 03:08:09;;;;;;;8.43;3.05;;;;;;;;;;5105622;28;20563;-48
2022/08/13 03:10:35;;;;;;;3.20;2.08;;;;;;;;;;5104741;28;20040;-52
2022/08/13 03:13:07;;;;;;;6.97;3.05;;;;;;;;;;5110240;28;20093;-50
2022/08/13 03:15:33;;;;;;;3.10;2.05;;;;;;;;;;5106324;28;20122;-49
2022/08/13 03:17:59;;;;;;;11.60;2.47;;;;;;;;;;5109572;28;20138;-47
2022/08/13 03:20:25;;;;;;;13.95;3.80;;;;;;;;;;5109044;28;20044;-51
2022/08/13 03:22:50;;;;;;;3.78;2.45;;;;;;;;;;5108867;28;20048;-48
2022/08/13 03:25:16;;;;;;;6.32;1.67;;;;;;;;;;5109122;28;20093;-52
2022/08/13 03:27:41;;;;;;;4.82;1.80;;;;;;;;;;5108744;28;20052;-51
2022/08/13 03:30:07;;;;;;;7.82;1.88;;;;;;;;;;5109698;28;20514;-49
2022/08/13 03:32:36;;;;;;;6.55;2.88;;;;;;;;;;5109185;28;20795;-51
2022/08/13 03:35:02;;;;;;;4.47;1.90;;;;;;;;;;5108185;28;20055;-49
2022/08/13 03:37:28;;;;;;;2.55;2.10;;;;;;;;;;5107297;28;20044;-52
2022/08/13 03:39:53;;;;;;;4.85;2.53;;;;;;;;;;5107545;28;20423;-53
2022/08/13 03:42:18;;;;;;;6.05;2.13;;;;;;;;;;5106945;28;20166;-54
2022/08/13 03:44:43;;;;;;;4.78;2.20;;;;;;;;;;5108737;28;20532;-50
2022/08/13 03:47:09;;;;;;;6.47;2.67;;;;;;;;;;5109385;28;20490;-47
2022/08/13 03:49:36;;;;;;;6.75;1.92;;;;;;;;;;5107356;28;20031;-52
2022/08/13 03:52:02;;;;;;;2.85;2.33;;;;;;;;;;5107672;28;20039;-53
2022/08/13 03:54:27;;;;;;;11.02;2.17;;;;;;;;;;5109035;28;20693;-49
2022/08/13 03:56:52;;;;;;;2.33;1.42;;;;;;;;;;5108272;28;20046;-51
2022/08/13 03:59:18;;;;;;;2.97;2.00;;;;;;;;;;5104843;28;20573;-49
2022/08/13 04:01:44;;;;;;;17.55;2.70;;;;;;;;;;5106879;28;20949;-51
2022/08/13 04:04:10;;;;;;;4.07;2.20;;;;;;;;;;5108216;28;20067;-50
2022/08/13 04:06:36;;;;;;;2.08;1.70;;;;;;;;;;5088629;28;20108;-52
2022/08/13 04:09:03;;;;;;;4.13;1.45;;;;;;;;;;5108858;28;20119;-51
2022/08/13 04:11:28;;;;;;;5.35;1.98;;;;;;;;;;5108223;28;20056;-50
2022/08/13 04:13:54;;;;;;;8.30;2.10;;;;;;;;;;5108196;28;20039;-50
2022/08/13 04:16:23;;;;;;;5.55;2.65;;;;;;;;;;5106843;28;20040;-54
2022/08/13 04:18:49;;;;;;;9.57;2.65;;;;;;;;;;5107073;28;20071;-49
2022/08/13 04:21:15;;;;;;;2.70;2.38;;;;;;;;;;5109818;27;20756;-48
2022/08/13 04:23:41;;;;;;;2.75;2.15;;;;;;;;;;5105792;28;20059;-50
2022/08/13 04:26:08;;;;;;;3.45;2.47;;;;;;;;;;5108427;28;20498;-49
2022/08/13 04:28:33;;;;;;;7.55;3.22;;;;;;;;;;5106810;28;20047;-50
2022/08/13 04:31:00;;;;;;;16.63;2.63;;;;;;;;;;5107311;28;20054;-51
2022/08/13 04:33:27;;;;;;;10.25;3.35;;;;;;;;;;5105557;28;20043;-49
2022/08/13 04:35:56;;;;;;;7.35;3.38;;;;;;;;;;5107499;28;20050;-51
2022/08/13 04:38:21;;;;;;;3.97;2.65;;;;;;;;;;5106566;28;20054;-52
2022/08/13 04:40:47;;;;;;;3.30;2.20;;;;;;;;;;5106045;28;20051;-47
2022/08/13 04:43:12;;;;;;;4.22;2.53;;;;;;;;;;5106258;28;20051;-49
2022/08/13 04:45:38;;;;;;;2.90;2.60;;;;;;;;;;5107239;28;20513;-51
2022/08/13 04:48:07;;;;;;;6.97;4.05;;;;;;;;;;5107205;28;20051;-48
2022/08/13 04:50:34;;;;;;;8.23;2.70;;;;;;;;;;5107822;28;20036;-50
2022/08/13 04:53:02;;;;;;;4.47;2.65;;;;;;;;;;5108204;28;20043;-50
2022/08/13 04:55:28;;;;;;;5.30;2.72;;;;;;;;;;5106262;28;20036;-47
2022/08/13 04:57:54;;;;;;;19.45;15.40;;;;;;;;;;5107757;28;20051;-47
2022/08/13 05:00:24;;;;;;;13.48;6.38;;;;;;;;;;5107331;28;20139;-49
2022/08/13 05:02:49;;;;;;;13.25;3.42;;;;;;;;;;5106762;28;20070;-50
2022/08/13 05:05:15;;;;;;;8.77;3.35;;;;;;;;;;5107560;28;20052;-49
2022/08/13 05:07:41;;;;;;;6.63;3.92;;;;;;;;;;5107748;28;20815;-50
2022/08/13 05:10:07;;;;;;;4.60;3.40;;;;;;;;;;5107024;28;20970;-48
2022/08/13 05:12:33;;;;;;;8.35;2.15;;;;;;;;;;5106485;28;20039;-53
2022/08/13 05:14:58;;;;;;;3.78;2.17;;;;;;;;;;5107262;28;20113;-48
2022/08/13 05:17:25;;;;;;;2.97;1.92;;;;;;;;;;5106540;28;20054;-50
2022/08/13 05:19:50;;;;;;;7.40;3.63;;;;;;;;;;5107492;28;20982;-48
2022/08/13 05:22:15;;;;;;;7.00;2.70;;;;;;;;;;5107452;28;20526;-46
2022/08/13 05:24:41;;;;;;;7.22;2.90;;;;;;;;;;5107381;28;20108;-49
2022/08/13 05:27:09;;;;;;;6.13;2.85;;;;;;;;;;5106459;28;20031;-52
2022/08/13 05:29:37;;;;;;;3.35;2.78;;;;;;;;;;5107552;28;20043;-50
2022/08/13 05:32:03;;;;;;;3.35;1.80;;;;;;;;;;5105458;28;20434;-48
2022/08/13 05:34:28;;;;;;;17.25;3.00;;;;;;;;;;5105617;28;20035;-46
2022/08/13 05:36:55;;;;;;;5.22;3.03;;;;;;;;;;5106163;28;20051;-46
2022/08/13 05:39:20;;;;;;;12.68;2.97;;;;;;;;;;5107033;28;20692;-52
2022/08/13 05:41:47;;;;;;;6.00;3.78;;;;;;;;;;5106089;28;20071;-48
2022/08/13 05:44:13;;;;;;;6.47;2.00;;;;;;;;;;5104744;28;20122;-47
2022/08/13 05:46:38;;;;;;;6.05;2.78;;;;;;;;;;5106183;28;20135;-47
2022/08/13 05:49:04;;;;;;;7.25;3.05;;;;;;;;;;5106358;28;20051;-47
2022/08/13 05:51:33;;;;;;;7.90;4.47;;;;;;;;;;5106710;28;20059;-51
2022/08/13 05:53:59;;;;;;;6.90;3.08;;;;;;;;;;5106009;28;20043;-49
2022/08/13 05:56:37;;;;;;;5.32;2.90;;;;;;;;;;5106125;28;20052;-48
2022/08/13 05:59:03;;;;;;;14.00;3.58;;;;;;;;;;5107196;28;20052;-47
2022/08/13 06:04:26;;;;;;;4.78;2.25;;;;;;;;;;5059975;28;20047;-51
2022/08/13 06:06:51;;;;;;;7.57;3.20;;;;;;;;;;5107222;28;20112;-47
2022/08/13 06:09:18;;;;;;;7.05;2.95;;;;;;;;;;5105320;28;20546;-53
2022/08/13 06:11:43;;;;;;;4.50;2.65;;;;;;;;;;5106700;28;20048;-46
2022/08/13 06:14:08;;;;;;;4.25;2.53;;;;;;;;;;5106076;28;20066;-53
2022/08/13 06:16:34;;;;;;;6.85;3.13;;;;;;;;;;5106331;28;20051;-53
2022/08/13 06:19:00;;;;;;;5.90;2.42;;;;;;;;;;5105398;28;20047;-47
2022/08/13 06:21:26;;;;;;;17.83;2.67;;;;;;;;;;5106037;28;20054;-50
2022/08/13 06:23:52;;;;;;;5.88;2.97;;;;;;;;;;5105420;28;20052;-49
2022/08/13 06:26:19;;;;;;;4.70;3.20;;;;;;;;;;5106456;28;20947;-48
2022/08/13 06:28:45;;;;;;;4.65;3.47;;;;;;;;;;5105342;28;20055;-49
2022/08/13 06:31:13;;;;;;;8.98;3.08;;;;;;;;;;5105519;28;20040;-52
2022/08/13 06:33:40;;;;;;;3.78;2.40;;;;;;;;;;5106282;28;20039;-48
2022/08/13 06:36:07;;;;;;;4.43;2.33;;;;;;;;;;5106846;28;20105;-52
2022/08/13 06:38:37;;;;;;;12.45;4.20;;;;;;;;;;5106056;28;20328;-52
2022/08/13 06:41:04;;;;;;;13.50;4.30;;;;;;;;;;5105163;28;20027;-52
2022/08/13 06:43:32;;;;;;;21.10;5.13;;;;;;;;;;5105646;28;20043;-49
2022/08/13 06:45:59;;;;;;;3.92;2.92;;;;;;;;;;5107055;28;20364;-52
2022/08/13 06:48:25;;;;;;;10.98;5.03;;;;;;;;;;5109003;28;20040;-53
2022/08/13 06:50:50;;;;;;;5.22;3.50;;;;;;;;;;5108150;28;20418;-51
2022/08/13 06:53:16;;;;;;;10.70;4.43;;;;;;;;;;5109226;28;20127;-51
2022/08/13 06:55:42;;;;;;;5.15;2.78;;;;;;;;;;5110649;28;20044;-49
2022/08/13 06:58:09;;;;;;;2.97;2.10;;;;;;;;;;5106381;28;20641;-50
2022/08/13 07:00:35;;;;;;;5.53;2.15;;;;;;;;;;5109662;28;20090;-50
2022/08/13 07:03:02;;;;;;;4.75;3.75;;;;;;;;;;5108736;27;20561;-51
2022/08/13 07:05:45;;;;;;;11.98;4.32;;;;;;;;;;5109287;27;20139;-50
2022/08/13 07:08:13;;;;;;;11.13;3.58;;;;;;;;;;5107672;28;20059;-51
2022/08/13 07:10:43;;;;;;;9.27;3.45;;;;;;;;;;5107545;28;20039;-52
2022/08/13 07:13:09;;;;;;;3.72;2.75;;;;;;;;;;5107714;28;20044;-50
2022/08/13 07:15:34;;;;;;;11.38;5.82;;;;;;;;;;5108981;28;20035;-53
2022/08/13 07:17:59;;;;;;;6.82;5.07;;;;;;;;;;5108530;28;20516;-55
2022/08/13 07:20:25;;;;;;;4.70;2.92;;;;;;;;;;5110031;28;20050;-52
2022/08/13 07:22:55;;;;;;;9.27;3.95;;;;;;;;;;5108937;28;20509;-49
2022/08/13 07:25:22;;;;;;;20.80;7.47;;;;;;;;;;5108095;28;20502;-50
2022/08/13 07:27:49;;;;;;;12.95;3.60;;;;;;;;;;5107142;28;20047;-49
2022/08/13 07:30:15;;;;;;;5.75;4.22;;;;;;;;;;5106755;28;20071;-51
2022/08/13 07:32:41;;;;;;;5.10;2.33;;;;;;;;;;5104787;28;20071;-54
2022/08/13 07:35:08;;;;;;;11.70;4.85;;;;;;;;;;5105476;28;20043;-51
2022/08/13 07:37:39;;;;;;;5.57;3.90;;;;;;;;;;5107292;28;20043;-49
2022/08/13 07:40:04;;;;;;;4.95;3.42;;;;;;;;;;5106523;28;20035;-55
2022/08/13 07:42:31;;;;;;;18.40;5.85;;;;;;;;;;5106293;28;20046;-51
2022/08/13 07:44:59;;;;;;;10.90;5.55;;;;;;;;;;5102223;28;20031;-53
2022/08/13 07:47:25;;;;;;;5.47;4.20;;;;;;;;;;5101806;28;20091;-48
2022/08/13 07:49:54;;;;;;;7.03;4.03;;;;;;;;;;5106087;28;20067;-51
2022/08/13 07:52:19;;;;;;;11.20;4.25;;;;;;;;;;5105212;28;20047;-55
2022/08/13 07:54:45;;;;;;;5.15;4.65;;;;;;;;;;5107256;28;20047;-52
2022/08/13 07:57:12;;;;;;;10.07;6.07;;;;;;;;;;5105367;28;20549;-50
2022/08/13 07:59:38;;;;;;;7.50;4.35;;;;;;;;;;5108230;28;20046;-50
2022/08/13 08:02:06;;;;;;;6.53;3.28;;;;;;;;;;5107562;28;20547;-50
2022/08/13 08:04:34;;;;;;;7.45;3.90;;;;;;;;;;5106517;28;20062;-52
2022/08/13 08:07:01;;;;;;;6.70;4.05;;;;;;;;;;5107382;28;20047;-52
2022/08/13 08:09:29;;;;;;;4.78;3.63;;;;;;;;;;5106483;28;20043;-47
2022/08/13 08:14:41;;;;;;;13.60;7.07;;;;;;;;;;5106603;28;20124;-52
2022/08/13 08:17:08;;;;;;;5.55;3.97;;;;;;;;;;5106033;28;20085;-50
2022/08/13 08:19:33;;;;;;;12.65;5.22;;;;;;;;;;5105612;28;20043;-51
2022/08/13 08:21:59;;;;;;;17.73;3.95;;;;;;;;;;5107583;28;20055;-50
2022/08/13 08:24:25;;;;;;;9.93;5.38;;;;;;;;;;5105657;28;20036;-49
2022/08/13 08:26:53;;;;;;;7.93;4.15;;;;;;;;;;5104380;28;20044;-54
2022/08/13 08:29:18;;;;;;;38.97;6.57;;;;;;;;;;5105271;28;20048;-54
2022/08/13 08:31:44;;;;;;;7.40;4.50;;;;;;;;;;5107467;28;20054;-51
2022/08/13 08:34:10;;;;;;;11.40;4.25;;;;;;;;;;5104522;28;20648;-52
2022/08/13 08:36:39;;;;;;;11.77;4.85;;;;;;;;;;5106617;28;20418;-53
2022/08/13 08:44:34;;;;;;;8.43;4.25;;;;;;;;;;5103686;28;20063;-52
2022/08/13 08:47:01;;;;;;;7.60;4.95;;;;;;;;;;5104777;28;20706;-53
2022/08/13 08:49:28;;;;;;;12.48;3.35;;;;;;;;;;5104486;28;20039;-52
2022/08/13 08:51:54;;;;;;;31.50;4.65;;;;;;;;;;5105827;28;20414;-52
2022/08/13 08:54:22;;;;;;;8.43;3.63;;;;;;;;;;5106442;28;20050;-52
2022/08/13 08:56:48;;;;;;;19.80;3.60;;;;;;;;;;5103382;28;20047;-53
2022/08/13 08:59:15;;;;;;;11.13;3.35;;;;;;;;;;5104698;28;20551;-51
2022/08/13 09:01:42;;;;;;;16.75;6.60;;;;;;;;;;5106961;28;20044;-54
2022/08/13 09:04:09;;;;;;;15.60;3.85;;;;;;;;;;5105749;28;20058;-53
2022/08/13 09:06:34;;;;;;;6.30;2.70;;;;;;;;;;5107451;28;20084;-53
2022/08/13 09:09:01;;;;;;;19.13;4.13;;;;;;;;;;5102509;28;20408;-53
2022/08/13 09:11:29;;;;;;;14.15;6.40;;;;;;;;;;5105490;28;20075;-51
2022/08/13 09:13:55;;;;;;;14.80;5.28;;;;;;;;;;5106518;28;20340;-50
2022/08/13 09:16:20;;;;;;;15.52;6.10;;;;;;;;;;5103587;28;20665;-52
2022/08/13 09:18:46;;;;;;;8.07;2.08;;;;;;;;;;5101041;28;20182;-53
2022/08/13 09:21:11;;;;;;;4.65;2.55;;;;;;;;;;5105158;28;20046;-55
2022/08/13 09:23:44;;;;;;;7.60;3.17;;;;;;;;;;5106093;28;20675;-52
2022/08/13 09:26:10;;;;;;;32.00;6.10;;;;;;;;;;5104175;28;20044;-56
2022/08/13 09:28:37;;;;;;;19.48;4.85;;;;;;;;;;5106737;28;20058;-57
2022/08/13 09:31:02;;;;;;;14.65;3.25;;;;;;;;;;5106287;28;20066;-57
2022/08/13 09:33:29;;;;;;;12.25;3.53;;;;;;;;;;5105374;28;20040;-57
2022/08/13 09:35:54;;;;;;;7.65;3.78;;;;;;;;;;5104659;28;20043;-56
2022/08/13 09:38:21;;;;;;;11.20;3.38;;;;;;;;;;5106888;28;20035;-57
2022/08/13 09:40:49;;;;;;;4.40;1.23;;;;;;;;;;5104940;28;20503;-57
2022/08/13 09:43:19;;;;;;;4.55;2.00;;;;;;;;;;5105173;28;20066;-56
2022/08/13 09:45:44;;;;;;;14.07;3.13;;;;;;;;;;5106518;28;20051;-56
2022/08/13 09:48:10;;;;;;;22.70;5.13;;;;;;;;;;5105647;28;20847;-57
2022/08/13 09:50:39;;;;;;;8.52;2.67;;;;;;;;;;5105387;28;20103;-53
2022/08/13 09:53:05;;;;;;;30.27;2.65;;;;;;;;;;5105895;28;20511;-57
2022/08/13 09:55:31;;;;;;;11.60;4.10;;;;;;;;;;5104591;28;20118;-55
2022/08/13 09:58:00;;;;;;;28.73;4.97;;;;;;;;;;5104108;28;20457;-57
2022/08/13 10:00:30;;;;;;;7.38;3.58;;;;;;;;;;5104848;28;20043;-56
2022/08/13 10:02:59;;;;;;;17.27;6.45;;;;;;;;;;5105048;28;20049;-57
2022/08/13 10:05:32;;;;;;;11.20;3.33;;;;;;;;;;5105955;28;20820;-57
2022/08/13 10:07:58;;;;;;;15.38;3.35;;;;;;;;;;5103383;28;20179;-56
2022/08/13 10:10:23;;;;;;;10.82;3.65;;;;;;;;;;5105914;28;20515;-57
2022/08/13 10:12:49;;;;;;;13.85;3.55;;;;;;;;;;5105726;28;20059;-57
2022/08/13 10:15:14;;;;;;;13.35;3.72;;;;;;;;;;5105498;28;20069;-55
2022/08/13 10:17:45;;;;;;;8.25;3.20;;;;;;;;;;5106068;28;20055;-57
2022/08/13 10:20:10;;;;;;;4.95;2.00;;;;;;;;;;5103243;28;20535;-57
2022/08/13 10:22:35;;;;;;;9.13;2.40;;;;;;;;;;5110348;28;20051;-57
2022/08/13 10:25:01;;;;;;;10.02;3.28;;;;;;;;;;5109261;28;20059;-57
2022/08/13 10:27:26;;;;;;;20.65;4.35;;;;;;;;;;5109824;28;20127;-57
2022/08/13 10:29:51;;;;;;;8.13;3.35;;;;;;;;;;5109486;28;20087;-57
2022/08/13 10:32:17;;;;;;;14.40;4.55;;;;;;;;;;5108359;28;20024;-57
2022/08/13 10:34:44;;;;;;;8.68;3.53;;;;;;;;;;5108533;28;20121;-57
2022/08/13 10:37:09;;;;;;;18.08;8.55;;;;;;;;;;5082582;28;20036;-55
2022/08/13 10:39:34;;;;;;;21.98;4.28;;;;;;;;;;5105883;28;20556;-57
2022/08/13 10:42:00;;;;;;;10.90;4.10;;;;;;;;;;5107232;28;20068;-57
2022/08/13 10:44:25;;;;;;;6.78;3.67;;;;;;;;;;5107297;28;20466;-56
2022/08/13 10:46:51;;;;;;;6.70;3.90;;;;;;;;;;5108398;28;20521;-57
2022/08/13 10:49:16;;;;;;;12.02;2.25;;;;;;;;;;5107257;28;20044;-56
2022/08/13 10:51:41;;;;;;;7.75;2.05;;;;;;;;;;5106850;28;20628;-57
2022/08/13 10:54:08;;;;;;;5.40;2.17;;;;;;;;;;5107813;28;20160;-57
2022/08/13 10:56:33;;;;;;;8.50;2.65;;;;;;;;;;5109339;28;20038;-56
2022/08/13 10:59:00;;;;;;;19.05;6.63;;;;;;;;;;5108450;28;20043;-57
2022/08/13 11:01:26;;;;;;;10.25;3.97;;;;;;;;;;5108870;28;20039;-57
2022/08/13 11:03:53;;;;;;;14.00;3.13;;;;;;;;;;5108711;28;20038;-57
2022/08/13 11:06:19;;;;;;;14.55;5.72;;;;;;;;;;5109627;28;20040;-57
2022/08/13 11:08:47;;;;;;;15.43;5.15;;;;;;;;;;5105990;28;20036;-57
2022/08/13 11:11:12;;;;;;;34.22;5.30;;;;;;;;;;5107721;28;20043;-57
2022/08/13 11:13:37;;;;;;;9.10;4.60;;;;;;;;;;5108399;28;20032;-57
2022/08/13 11:16:05;;;;;;;34.00;6.72;;;;;;;;;;5107496;28;20147;-57
2022/08/13 11:18:32;;;;;;;10.07;5.90;;;;;;;;;;5107765;28;20058;-55
2022/08/13 11:21:03;;;;;;;15.13;4.38;;;;;;;;;;5109701;28;20051;-57
2022/08/13 11:23:30;;;;;;;16.63;6.45;;;;;;;;;;5109063;28;20105;-48
2022/08/13 11:25:56;;;;;;;19.80;7.40;;;;;;;;;;5108986;28;20548;-48
2022/08/13 11:28:22;;;;;;;12.65;3.28;;;;;;;;;;5106802;28;20056;-47
2022/08/13 11:30:48;;;;;;;16.52;5.75;;;;;;;;;;5107061;28;20082;-45
2022/08/13 11:33:13;;;;;;;26.02;6.55;;;;;;;;;;5107350;28;20048;-47
2022/08/13 11:35:38;;;;;;;14.18;7.13;;;;;;;;;;5105704;28;20248;-47
2022/08/13 11:38:11;;;;;;;13.63;5.25;;;;;;;;;;5107502;28;20056;-43
2022/08/13 11:40:37;;;;;;;10.70;5.53;;;;;;;;;;5108618;28;20569;-46
2022/08/13 11:43:02;;;;;;;13.10;4.43;;;;;;;;;;5107853;28;20145;-46
2022/08/13 11:45:28;;;;;;;5.25;2.90;;;;;;;;;;5105664;28;20568;-51
2022/08/13 11:47:53;;;;;;;18.35;5.28;;;;;;;;;;5107576;28;20078;-47
2022/08/13 11:50:18;;;;;;;12.70;4.40;;;;;;;;;;5106805;28;20522;-49
2022/08/13 11:52:44;;;;;;;10.48;2.42;;;;;;;;;;5107745;28;20559;-52
2022/08/13 11:55:09;;;;;;;8.73;4.15;;;;;;;;;;5106688;28;20047;-55
2022/08/13 11:57:34;;;;;;;6.68;1.98;;;;;;;;;;5108541;27;20043;-49
2022/08/13 12:00:00;;;;;;;8.43;4.43;;;;;;;;;;5104734;28;20074;-48
2022/08/13 12:02:25;;;;;;;15.20;3.60;;;;;;;;;;5106613;28;20043;-45
2022/08/13 12:04:51;;;;;;;10.20;5.18;;;;;;;;;;5106980;28;20073;-57
2022/08/13 12:07:16;;;;;;;11.82;3.85;;;;;;;;;;5108188;28;20039;-43
2022/08/13 12:09:41;;;;;;;16.08;5.10;;;;;;;;;;5104152;28;20036;-43
2022/08/13 12:12:07;;;;;;;10.40;3.40;;;;;;;;;;5105528;28;20036;-59
2022/08/13 12:14:32;;;;;;;15.93;3.05;;;;;;;;;;5106934;28;20482;-54
2022/08/13 12:16:57;;;;;;;12.13;3.72;;;;;;;;;;5106534;28;20521;-47
2022/08/13 12:19:23;;;;;;;10.85;3.10;;;;;;;;;;5106815;28;20086;-43
2022/08/13 12:21:48;;;;;;;25.02;5.75;;;;;;;;;;5089748;28;20089;-48
2022/08/13 12:24:13;;;;;;;7.55;3.78;;;;;;;;;;5106927;28;20096;-44
2022/08/13 12:26:39;;;;;;;24.13;3.80;;;;;;;;;;5107373;28;20498;-43
2022/08/13 12:29:04;;;;;;;8.35;2.33;;;;;;;;;;5107209;28;20047;-42
2022/08/13 12:31:29;;;;;;;19.77;2.78;;;;;;;;;;5100442;28;20043;-45
2022/08/13 12:33:55;;;;;;;17.25;4.05;;;;;;;;;;5105615;28;20051;-45
2022/08/13 12:36:21;;;;;;;17.42;3.47;;;;;;;;;;5106045;28;20047;-49
2022/08/13 12:38:46;;;;;;;21.63;4.22;;;;;;;;;;5105748;28;20042;-47
2022/08/13 12:41:11;;;;;;;8.02;3.85;;;;;;;;;;5107142;28;20035;-48
2022/08/13 12:43:37;;;;;;;11.82;3.47;;;;;;;;;;5101709;28;20579;-48
2022/08/13 12:46:02;;;;;;;20.52;3.13;;;;;;;;;;5106628;28;20097;-48
2022/08/13 12:48:28;;;;;;;24.98;5.32;;;;;;;;;;5106472;28;20047;-47
2022/08/13 12:50:53;;;;;;;4.03;1.92;;;;;;;;;;5105794;28;20082;-45
2022/08/13 12:53:19;;;;;;;6.93;3.00;;;;;;;;;;5106053;28;20506;-48
2022/08/13 12:55:45;;;;;;;11.38;3.63;;;;;;;;;;5105978;28;20054;-46
2022/08/13 12:58:12;;;;;;;17.85;5.13;;;;;;;;;;5104609;28;20048;-47
2022/08/13 13:00:37;;;;;;;8.25;4.75;;;;;;;;;;5105869;28;20530;-44
2022/08/13 13:03:02;;;;;;;15.43;7.22;;;;;;;;;;5107539;28;20044;-45
2022/08/13 13:05:29;;;;;;;6.55;4.55;;;;;;;;;;5102760;28;20056;-48
2022/08/13 13:07:54;;;;;;;10.05;4.10;;;;;;;;;;5104033;28;20048;-47
2022/08/13 13:10:19;;;;;;;9.57;3.50;;;;;;;;;;5104090;28;20101;-46
2022/08/13 13:12:45;;;;;;;7.13;3.70;;;;;;;;;;5105371;28;20123;-45
2022/08/13 13:15:10;;;;;;;24.77;5.32;;;;;;;;;;5104933;28;20028;-47
2022/08/13 13:17:38;;;;;;;20.77;6.72;;;;;;;;;;5106071;28;20143;-45
2022/08/13 13:20:03;;;;;;;16.73;6.28;;;;;;;;;;5104799;28;20056;-44
2022/08/13 13:22:29;;;;;;;17.50;7.57;;;;;;;;;;5102582;28;20125;-45
2022/08/13 13:24:55;;;;;;;16.25;4.88;;;;;;;;;;5105507;28;20057;-46
2022/08/13 13:27:21;;;;;;;16.90;8.05;;;;;;;;;;5104571;28;20040;-48
2022/08/13 13:29:47;;;;;;;14.98;4.28;;;;;;;;;;5105433;28;20031;-47
2022/08/13 13:32:13;;;;;;;12.93;2.78;;;;;;;;;;5105035;28;20142;-49
2022/08/13 13:34:44;;;;;;;24.35;7.03;;;;;;;;;;5106029;28;20043;-44
2022/08/13 13:37:10;;;;;;;15.60;5.65;;;;;;;;;;5105906;28;20154;-47
2022/08/13 13:39:36;;;;;;;17.20;3.90;;;;;;;;;;5105523;28;20071;-47
2022/08/13 13:42:01;;;;;;;18.25;4.93;;;;;;;;;;5105030;28;20079;-45
2022/08/13 13:44:26;;;;;;;14.73;4.50;;;;;;;;;;5104739;28;20051;-50
2022/08/13 13:46:51;;;;;;;19.17;6.97;;;;;;;;;;5104326;28;20055;-46
2022/08/13 13:49:17;;;;;;;6.10;2.08;;;;;;;;;;5104346;28;20082;-46
2022/08/13 13:51:42;;;;;;;6.85;1.55;;;;;;;;;;5105492;28;20047;-47
2022/08/13 13:54:07;;;;;;;13.70;3.67;;;;;;;;;;5105291;28;20092;-43
2022/08/13 13:56:33;;;;;;;21.27;5.72;;;;;;;;;;5105852;28;20073;-48
2022/08/13 13:58:58;;;;;;;15.52;5.97;;;;;;;;;;5105370;28;20550;-47
2022/08/13 14:01:24;;;;;;;20.00;5.40;;;;;;;;;;5104340;28;20052;-48
2022/08/13 14:03:49;;;;;;;17.23;5.10;;;;;;;;;;5101375;28;20044;-46
2022/08/13 14:06:19;;;;;;;22.45;5.28;;;;;;;;;;5104950;28;20051;-47
2022/08/13 14:08:45;;;;;;;23.97;2.97;;;;;;;;;;5105754;28;20077;-46
2022/08/13 14:11:10;;;;;;;17.33;3.90;;;;;;;;;;5105779;28;20047;-46
2022/08/13 14:13:36;;;;;;;13.07;2.83;;;;;;;;;;5105575;28;20049;-44
2022/08/13 14:16:01;;;;;;;14.57;5.10;;;;;;;;;;5105599;28;20101;-47
2022/08/13 14:18:27;;;;;;;20.10;6.90;;;;;;;;;;5105261;28;20054;-50
2022/08/13 14:20:54;;;;;;;14.27;6.13;;;;;;;;;;5104848;28;20043;-44
2022/08/13 14:23:20;;;;;;;16.95;3.95;;;;;;;;;;5103573;28;20536;-47
2022/08/13 14:25:46;;;;;;;7.60;2.40;;;;;;;;;;5104756;28;20525;-48
2022/08/13 14:28:12;;;;;;;14.20;4.18;;;;;;;;;;5104749;28;20044;-47
2022/08/13 14:30:38;;;;;;;26.00;7.80;;;;;;;;;;5104657;28;20036;-46
2022/08/13 14:33:04;;;;;;;17.92;4.43;;;;;;;;;;5105959;28;20047;-49
2022/08/13 14:35:29;;;;;;;7.25;2.20;;;;;;;;;;5104261;28;20044;-47
2022/08/13 14:37:55;;;;;;;19.67;5.20;;;;;;;;;;5104480;28;20119;-47
2022/08/13 14:40:21;;;;;;;10.07;3.63;;;;;;;;;;5104719;28;20047;-48
2022/08/13 14:42:47;;;;;;;16.27;6.68;;;;;;;;;;5104598;28;20484;-49
2022/08/13 14:47:58;;;;;;;15.48;3.45;;;;;;;;;;5104373;28;20581;-45
2022/08/13 14:50:24;;;;;;;28.88;8.90;;;;;;;;;;5104001;28;20036;-49
2022/08/13 14:52:50;;;;;;;17.15;3.45;;;;;;;;;;5104505;28;20498;-47
2022/08/13 14:55:16;;;;;;;15.95;7.05;;;;;;;;;;5102687;28;20456;-47